sensor_id;sensor_type;location;lat;lon;timestamp;temperature;humidity
3067;DHT22;1544;48.834;9.194;2023-09-08T00:01:01;18.60;47.60
3067;DHT22;1544;48.834;9.194;2023-09-08T00:03:37;18.60;47.80
3067;DHT22;1544;48.834;9.194;2023-09-08T00:06:13;18.50;47.80
3067;DHT22;1544;48.834;9.194;2023-09-08T00:08:49;18.50;48.00
3067;DHT22;1544;48.834;9.194;2023-09-08T00:11:25;18.40;48.20
3067;DHT22;1544;48.834;9.194;2023-09-08T00:14:01;18.40;48.30
3067;DHT22;1544;48.834;9.194;2023-09-08T00:16:39;18.40;48.90
3067;DHT22;1544;48.834;9.194;2023-09-08T00:19:18;18.30;49.10
3067;DHT22;1544;48.834;9.194;2023-09-08T00:21:54;18.30;49.30
3067;DHT22;1544;48.834;9.194;2023-09-08T00:24:30;18.20;49.60
3067;DHT22;1544;48.834;9.194;2023-09-08T00:27:06;18.20;50.20
3067;DHT22;1544;48.834;9.194;2023-09-08T00:29:42;18.20;50.50
3067;DHT22;1544;48.834;9.194;2023-09-08T00:32:18;18.20;50.60
3067;DHT22;1544;48.834;9.194;2023-09-08T00:34:54;18.10;50.90
3067;DHT22;1544;48.834;9.194;2023-09-08T00:37:30;18.10;51.10
3067;DHT22;1544;48.834;9.194;2023-09-08T00:40:06;18.10;51.50
3067;DHT22;1544;48.834;9.194;2023-09-08T00:42:44;18.10;52.00
3067;DHT22;1544;48.834;9.194;2023-09-08T00:45:20;18.00;52.80
3067;DHT22;1544;48.834;9.194;2023-09-08T00:47:56;17.90;53.40
3067;DHT22;1544;48.834;9.194;2023-09-08T00:50:33;17.90;53.90
3067;DHT22;1544;48.834;9.194;2023-09-08T00:53:10;17.90;54.40
3067;DHT22;1544;48.834;9.194;2023-09-08T00:55:47;17.90;54.90
3067;DHT22;1544;48.834;9.194;2023-09-08T00:58:23;17.80;55.30
3067;DHT22;1544;48.834;9.194;2023-09-08T01:00:59;17.80;55.60
3067;DHT22;1544;48.834;9.194;2023-09-08T01:03:35;17.80;55.80
3067;DHT22;1544;48.834;9.194;2023-09-08T01:06:12;17.80;55.90
3067;DHT22;1544;48.834;9.194;2023-09-08T01:08:48;17.70;56.10
3067;DHT22;1544;48.834;9.194;2023-09-08T01:11:25;17.70;56.20
3067;DHT22;1544;48.834;9.194;2023-09-08T01:14:03;17.70;56.30
3067;DHT22;1544;48.834;9.194;2023-09-08T01:16:39;17.60;56.50
3067;DHT22;1544;48.834;9.194;2023-09-08T01:19:17;17.60;56.70
3067;DHT22;1544;48.834;9.194;2023-09-08T01:22:15;17.60;56.90
3067;DHT22;1544;48.834;9.194;2023-09-08T01:25:26;17.50;57.00
3067;DHT22;1544;48.834;9.194;2023-09-08T01:28:05;17.50;57.20
3067;DHT22;1544;48.834;9.194;2023-09-08T01:30:42;17.40;57.50
3067;DHT22;1544;48.834;9.194;2023-09-08T01:33:18;17.40;57.70
3067;DHT22;1544;48.834;9.194;2023-09-08T01:35:55;17.40;57.90
3067;DHT22;1544;48.834;9.194;2023-09-08T01:38:31;17.30;58.30
3067;DHT22;1544;48.834;9.194;2023-09-08T01:41:08;17.30;58.70
3067;DHT22;1544;48.834;9.194;2023-09-08T01:43:45;17.30;59.20
3067;DHT22;1544;48.834;9.194;2023-09-08T01:46:21;17.30;59.40
3067;DHT22;1544;48.834;9.194;2023-09-08T01:48:57;17.20;59.70
3067;DHT22;1544;48.834;9.194;2023-09-08T01:51:33;17.20;60.10
3067;DHT22;1544;48.834;9.194;2023-09-08T01:54:09;17.20;60.90
3067;DHT22;1544;48.834;9.194;2023-09-08T01:56:46;17.20;61.20
3067;DHT22;1544;48.834;9.194;2023-09-08T01:59:22;17.20;61.50
3067;DHT22;1544;48.834;9.194;2023-09-08T02:01:58;17.10;61.10
3067;DHT22;1544;48.834;9.194;2023-09-08T02:04:35;17.10;61.00
3067;DHT22;1544;48.834;9.194;2023-09-08T02:07:11;17.10;61.20
3067;DHT22;1544;48.834;9.194;2023-09-08T02:09:47;17.10;61.30
3067;DHT22;1544;48.834;9.194;2023-09-08T02:12:23;17.10;61.30
3067;DHT22;1544;48.834;9.194;2023-09-08T02:14:59;17.00;61.20
3067;DHT22;1544;48.834;9.194;2023-09-08T02:17:36;17.00;61.60
3067;DHT22;1544;48.834;9.194;2023-09-08T02:20:12;17.00;61.50
3067;DHT22;1544;48.834;9.194;2023-09-08T02:25:30;17.00;61.50
3067;DHT22;1544;48.834;9.194;2023-09-08T02:28:06;17.00;61.60
3067;DHT22;1544;48.834;9.194;2023-09-08T02:30:42;17.00;61.70
3067;DHT22;1544;48.834;9.194;2023-09-08T02:33:18;17.00;61.70
3067;DHT22;1544;48.834;9.194;2023-09-08T02:35:55;17.00;61.60
3067;DHT22;1544;48.834;9.194;2023-09-08T02:38:31;17.00;61.70
3067;DHT22;1544;48.834;9.194;2023-09-08T02:41:08;16.90;61.70
3067;DHT22;1544;48.834;9.194;2023-09-08T02:43:45;16.90;62.00
3067;DHT22;1544;48.834;9.194;2023-09-08T02:46:21;16.90;62.30
3067;DHT22;1544;48.834;9.194;2023-09-08T02:48:57;16.90;62.40
3067;DHT22;1544;48.834;9.194;2023-09-08T02:51:33;16.90;62.40
3067;DHT22;1544;48.834;9.194;2023-09-08T02:54:09;16.90;62.80
3067;DHT22;1544;48.834;9.194;2023-09-08T02:56:45;16.90;62.90
3067;DHT22;1544;48.834;9.194;2023-09-08T02:59:21;16.80;62.60
3067;DHT22;1544;48.834;9.194;2023-09-08T03:01:59;16.80;62.40
3067;DHT22;1544;48.834;9.194;2023-09-08T03:04:35;16.80;62.30
3067;DHT22;1544;48.834;9.194;2023-09-08T03:07:11;16.80;62.20
3067;DHT22;1544;48.834;9.194;2023-09-08T03:09:48;16.80;62.50
3067;DHT22;1544;48.834;9.194;2023-09-08T03:12:23;16.80;62.50
3067;DHT22;1544;48.834;9.194;2023-09-08T03:15:01;16.80;62.70
3067;DHT22;1544;48.834;9.194;2023-09-08T03:17:38;16.70;62.70
3067;DHT22;1544;48.834;9.194;2023-09-08T03:20:16;16.70;63.00
3067;DHT22;1544;48.834;9.194;2023-09-08T03:22:52;16.70;63.10
3067;DHT22;1544;48.834;9.194;2023-09-08T03:25:28;16.60;63.20
3067;DHT22;1544;48.834;9.194;2023-09-08T03:28:04;16.60;63.50
3067;DHT22;1544;48.834;9.194;2023-09-08T03:30:40;16.60;63.90
3067;DHT22;1544;48.834;9.194;2023-09-08T03:33:16;16.60;64.40
3067;DHT22;1544;48.834;9.194;2023-09-08T03:35:52;16.50;64.70
3067;DHT22;1544;48.834;9.194;2023-09-08T03:38:28;16.50;65.30
3067;DHT22;1544;48.834;9.194;2023-09-08T03:41:06;16.50;65.00
3067;DHT22;1544;48.834;9.194;2023-09-08T03:43:42;16.50;65.40
3067;DHT22;1544;48.834;9.194;2023-09-08T03:46:18;16.50;65.40
3067;DHT22;1544;48.834;9.194;2023-09-08T03:48:54;16.40;65.30
3067;DHT22;1544;48.834;9.194;2023-09-08T03:51:34;16.40;65.30
3067;DHT22;1544;48.834;9.194;2023-09-08T03:54:10;16.40;65.30
3067;DHT22;1544;48.834;9.194;2023-09-08T03:56:46;16.40;65.30
3067;DHT22;1544;48.834;9.194;2023-09-08T03:59:22;16.30;65.30
3067;DHT22;1544;48.834;9.194;2023-09-08T04:01:58;16.30;65.30
3067;DHT22;1544;48.834;9.194;2023-09-08T04:04:36;16.30;65.30
3067;DHT22;1544;48.834;9.194;2023-09-08T04:07:12;16.20;65.20
3067;DHT22;1544;48.834;9.194;2023-09-08T04:09:48;16.20;65.10
3067;DHT22;1544;48.834;9.194;2023-09-08T04:12:24;16.20;65.00
3067;DHT22;1544;48.834;9.194;2023-09-08T04:15:00;16.20;65.00
3067;DHT22;1544;48.834;9.194;2023-09-08T04:17:37;16.10;65.10
3067;DHT22;1544;48.834;9.194;2023-09-08T04:20:13;16.10;65.50
3067;DHT22;1544;48.834;9.194;2023-09-08T04:22:52;16.10;65.70
3067;DHT22;1544;48.834;9.194;2023-09-08T04:25:28;16.00;65.70
3067;DHT22;1544;48.834;9.194;2023-09-08T04:28:04;16.10;65.80
3067;DHT22;1544;48.834;9.194;2023-09-08T04:30:41;16.00;66.00
3067;DHT22;1544;48.834;9.194;2023-09-08T04:33:17;16.00;66.20
3067;DHT22;1544;48.834;9.194;2023-09-08T04:35:53;16.00;66.40
3067;DHT22;1544;48.834;9.194;2023-09-08T04:38:29;16.00;67.10
3067;DHT22;1544;48.834;9.194;2023-09-08T04:41:05;15.90;67.10
3067;DHT22;1544;48.834;9.194;2023-09-08T04:43:41;16.00;67.30
3067;DHT22;1544;48.834;9.194;2023-09-08T04:46:17;16.00;67.10
3067;DHT22;1544;48.834;9.194;2023-09-08T04:48:54;16.00;67.00
3067;DHT22;1544;48.834;9.194;2023-09-08T04:51:31;16.00;66.90
3067;DHT22;1544;48.834;9.194;2023-09-08T04:54:07;16.00;67.10
3067;DHT22;1544;48.834;9.194;2023-09-08T04:56:44;16.00;67.10
3067;DHT22;1544;48.834;9.194;2023-09-08T04:59:20;16.00;67.00
3067;DHT22;1544;48.834;9.194;2023-09-08T05:02:00;16.00;66.80
3067;DHT22;1544;48.834;9.194;2023-09-08T05:04:36;16.00;66.60
3067;DHT22;1544;48.834;9.194;2023-09-08T05:07:12;16.00;66.60
3067;DHT22;1544;48.834;9.194;2023-09-08T05:09:49;16.00;66.50
3067;DHT22;1544;48.834;9.194;2023-09-08T05:12:25;16.00;66.50
3067;DHT22;1544;48.834;9.194;2023-09-08T05:15:01;16.00;66.70
3067;DHT22;1544;48.834;9.194;2023-09-08T05:17:45;16.00;66.80
3067;DHT22;1544;48.834;9.194;2023-09-08T05:20:21;16.00;67.60
3067;DHT22;1544;48.834;9.194;2023-09-08T05:22:58;16.00;67.80
3067;DHT22;1544;48.834;9.194;2023-09-08T05:25:34;16.00;68.20
3067;DHT22;1544;48.834;9.194;2023-09-08T05:28:11;16.00;68.80
3067;DHT22;1544;48.834;9.194;2023-09-08T05:30:47;16.00;68.40
3067;DHT22;1544;48.834;9.194;2023-09-08T05:33:23;16.10;68.80
3067;DHT22;1544;48.834;9.194;2023-09-08T05:36:00;16.10;68.80
3067;DHT22;1544;48.834;9.194;2023-09-08T05:38:37;16.10;68.90
3067;DHT22;1544;48.834;9.194;2023-09-08T05:41:13;16.10;68.80
3067;DHT22;1544;48.834;9.194;2023-09-08T05:43:50;16.20;68.60
3067;DHT22;1544;48.834;9.194;2023-09-08T05:46:26;16.20;68.40
3067;DHT22;1544;48.834;9.194;2023-09-08T05:49:02;16.20;69.00
3067;DHT22;1544;48.834;9.194;2023-09-08T05:51:40;16.20;69.20
3067;DHT22;1544;48.834;9.194;2023-09-08T05:54:16;16.30;69.10
3067;DHT22;1544;48.834;9.194;2023-09-08T05:56:52;16.30;68.70
3067;DHT22;1544;48.834;9.194;2023-09-08T05:59:28;16.40;68.70
3067;DHT22;1544;48.834;9.194;2023-09-08T06:02:04;16.50;68.40
3067;DHT22;1544;48.834;9.194;2023-09-08T06:04:40;16.50;67.80
3067;DHT22;1544;48.834;9.194;2023-09-08T06:07:17;16.60;67.70
3067;DHT22;1544;48.834;9.194;2023-09-08T06:09:53;16.60;67.40
3067;DHT22;1544;48.834;9.194;2023-09-08T06:12:29;16.70;67.40
3067;DHT22;1544;48.834;9.194;2023-09-08T06:15:06;16.80;67.10
3067;DHT22;1544;48.834;9.194;2023-09-08T06:17:44;16.80;66.80
3067;DHT22;1544;48.834;9.194;2023-09-08T06:20:20;16.90;66.40
3067;DHT22;1544;48.834;9.194;2023-09-08T06:22:57;17.00;66.00
3067;DHT22;1544;48.834;9.194;2023-09-08T06:25:33;17.00;65.50
3067;DHT22;1544;48.834;9.194;2023-09-08T06:28:09;17.10;65.10
3067;DHT22;1544;48.834;9.194;2023-09-08T06:30:46;17.20;64.80
3067;DHT22;1544;48.834;9.194;2023-09-08T06:33:22;17.20;64.40
3067;DHT22;1544;48.834;9.194;2023-09-08T06:35:59;17.30;64.20
3067;DHT22;1544;48.834;9.194;2023-09-08T06:38:35;17.40;63.90
3067;DHT22;1544;48.834;9.194;2023-09-08T06:41:12;17.40;63.30
3067;DHT22;1544;48.834;9.194;2023-09-08T06:43:50;17.60;62.90
3067;DHT22;1544;48.834;9.194;2023-09-08T06:46:30;17.70;62.00
3067;DHT22;1544;48.834;9.194;2023-09-08T06:49:06;17.70;60.90
3067;DHT22;1544;48.834;9.194;2023-09-08T06:51:42;17.80;60.20
3067;DHT22;1544;48.834;9.194;2023-09-08T06:54:19;17.90;59.40
3067;DHT22;1544;48.834;9.194;2023-09-08T06:56:55;18.00;58.80
3067;DHT22;1544;48.834;9.194;2023-09-08T06:59:31;18.10;58.30
3067;DHT22;1544;48.834;9.194;2023-09-08T07:02:07;18.20;57.30
3067;DHT22;1544;48.834;9.194;2023-09-08T07:04:44;18.30;56.60
3067;DHT22;1544;48.834;9.194;2023-09-08T07:07:20;18.40;56.10
3067;DHT22;1544;48.834;9.194;2023-09-08T07:09:57;18.50;55.80
3067;DHT22;1544;48.834;9.194;2023-09-08T07:12:33;18.60;55.40
3067;DHT22;1544;48.834;9.194;2023-09-08T07:15:09;18.70;55.10
3067;DHT22;1544;48.834;9.194;2023-09-08T07:17:46;18.70;54.80
3067;DHT22;1544;48.834;9.194;2023-09-08T07:20:23;18.80;54.50
3067;DHT22;1544;48.834;9.194;2023-09-08T07:22:59;18.90;54.00
3067;DHT22;1544;48.834;9.194;2023-09-08T07:25:35;18.90;53.60
3067;DHT22;1544;48.834;9.194;2023-09-08T07:28:11;19.00;53.40
3067;DHT22;1544;48.834;9.194;2023-09-08T07:30:47;19.10;53.20
3067;DHT22;1544;48.834;9.194;2023-09-08T07:33:24;19.20;52.90
3067;DHT22;1544;48.834;9.194;2023-09-08T07:36:07;19.30;52.70
3067;DHT22;1544;48.834;9.194;2023-09-08T07:38:46;19.30;52.50
3067;DHT22;1544;48.834;9.194;2023-09-08T07:41:22;19.40;52.20
3067;DHT22;1544;48.834;9.194;2023-09-08T07:43:58;19.50;52.00
3067;DHT22;1544;48.834;9.194;2023-09-08T07:46:34;19.50;51.70
3067;DHT22;1544;48.834;9.194;2023-09-08T07:49:10;19.60;51.50
3067;DHT22;1544;48.834;9.194;2023-09-08T07:51:46;19.70;51.40
3067;DHT22;1544;48.834;9.194;2023-09-08T07:54:22;19.80;51.30
3067;DHT22;1544;48.834;9.194;2023-09-08T07:56:58;19.90;51.20
3067;DHT22;1544;48.834;9.194;2023-09-08T07:59:34;20.00;51.10
3067;DHT22;1544;48.834;9.194;2023-09-08T08:02:12;20.10;50.90
3067;DHT22;1544;48.834;9.194;2023-09-08T08:04:48;20.10;50.70
3067;DHT22;1544;48.834;9.194;2023-09-08T08:07:24;20.20;50.40
3067;DHT22;1544;48.834;9.194;2023-09-08T08:10:00;20.30;50.20
3067;DHT22;1544;48.834;9.194;2023-09-08T08:12:37;20.30;50.00
3067;DHT22;1544;48.834;9.194;2023-09-08T08:15:14;20.40;49.80
3067;DHT22;1544;48.834;9.194;2023-09-08T08:17:50;20.60;50.20
3067;DHT22;1544;48.834;9.194;2023-09-08T08:20:26;20.60;49.50
3067;DHT22;1544;48.834;9.194;2023-09-08T08:23:06;20.70;49.20
3067;DHT22;1544;48.834;9.194;2023-09-08T08:25:42;20.80;49.00
3067;DHT22;1544;48.834;9.194;2023-09-08T08:28:18;20.90;49.30
3067;DHT22;1544;48.834;9.194;2023-09-08T08:30:55;21.00;48.70
3067;DHT22;1544;48.834;9.194;2023-09-08T08:33:32;21.10;48.50
3067;DHT22;1544;48.834;9.194;2023-09-08T08:36:08;21.20;48.30
3067;DHT22;1544;48.834;9.194;2023-09-08T08:38:45;21.30;48.10
3067;DHT22;1544;48.834;9.194;2023-09-08T08:41:21;21.40;47.90
3067;DHT22;1544;48.834;9.194;2023-09-08T08:43:58;21.50;47.80
3067;DHT22;1544;48.834;9.194;2023-09-08T08:46:39;21.60;47.70
3067;DHT22;1544;48.834;9.194;2023-09-08T08:49:16;21.60;47.50
3067;DHT22;1544;48.834;9.194;2023-09-08T08:51:53;21.70;47.30
3067;DHT22;1544;48.834;9.194;2023-09-08T08:54:30;21.90;47.20
3067;DHT22;1544;48.834;9.194;2023-09-08T08:57:06;22.00;47.10
3067;DHT22;1544;48.834;9.194;2023-09-08T08:59:43;22.00;46.70
3067;DHT22;1544;48.834;9.194;2023-09-08T09:02:21;22.10;46.30
3067;DHT22;1544;48.834;9.194;2023-09-08T09:04:58;22.20;46.00
3067;DHT22;1544;48.834;9.194;2023-09-08T09:07:34;22.30;44.80
3067;DHT22;1544;48.834;9.194;2023-09-08T09:10:10;22.30;44.80
3067;DHT22;1544;48.834;9.194;2023-09-08T09:12:46;22.40;44.90
3067;DHT22;1544;48.834;9.194;2023-09-08T09:15:29;22.60;45.00
3067;DHT22;1544;48.834;9.194;2023-09-08T09:18:07;22.70;45.00
3067;DHT22;1544;48.834;9.194;2023-09-08T09:20:53;22.80;44.80
3067;DHT22;1544;48.834;9.194;2023-09-08T09:23:32;22.90;44.50
3067;DHT22;1544;48.834;9.194;2023-09-08T09:26:09;23.00;44.20
3067;DHT22;1544;48.834;9.194;2023-09-08T09:28:47;23.10;44.20
3067;DHT22;1544;48.834;9.194;2023-09-08T09:31:24;23.20;44.00
3067;DHT22;1544;48.834;9.194;2023-09-08T09:34:02;23.30;43.90
3067;DHT22;1544;48.834;9.194;2023-09-08T09:36:43;23.40;43.70
3067;DHT22;1544;48.834;9.194;2023-09-08T09:39:22;23.60;43.50
3067;DHT22;1544;48.834;9.194;2023-09-08T09:41:59;23.60;43.10
3067;DHT22;1544;48.834;9.194;2023-09-08T09:44:35;23.70;42.90
3067;DHT22;1544;48.834;9.194;2023-09-08T09:47:13;23.80;42.30
3067;DHT22;1544;48.834;9.194;2023-09-08T09:49:49;23.90;42.10
3067;DHT22;1544;48.834;9.194;2023-09-08T09:52:25;24.00;42.10
3067;DHT22;1544;48.834;9.194;2023-09-08T09:55:03;24.20;42.00
3067;DHT22;1544;48.834;9.194;2023-09-08T09:57:39;24.30;41.80
3067;DHT22;1544;48.834;9.194;2023-09-08T10:00:15;24.40;41.70
3067;DHT22;1544;48.834;9.194;2023-09-08T10:02:53;24.50;41.30
3067;DHT22;1544;48.834;9.194;2023-09-08T10:05:30;24.70;41.20
3067;DHT22;1544;48.834;9.194;2023-09-08T10:08:06;24.90;41.10
3067;DHT22;1544;48.834;9.194;2023-09-08T10:10:43;25.00;40.50
3067;DHT22;1544;48.834;9.194;2023-09-08T10:13:26;25.00;39.60
3067;DHT22;1544;48.834;9.194;2023-09-08T10:16:06;25.20;39.50
3067;DHT22;1544;48.834;9.194;2023-09-08T10:18:45;25.30;39.30
3067;DHT22;1544;48.834;9.194;2023-09-08T10:21:23;25.40;39.20
3067;DHT22;1544;48.834;9.194;2023-09-08T10:24:06;25.50;39.20
3067;DHT22;1544;48.834;9.194;2023-09-08T10:27:07;25.60;39.00
3067;DHT22;1544;48.834;9.194;2023-09-08T10:29:45;25.80;38.90
3067;DHT22;1544;48.834;9.194;2023-09-08T10:32:22;25.80;38.60
3067;DHT22;1544;48.834;9.194;2023-09-08T10:34:59;25.90;38.70
3067;DHT22;1544;48.834;9.194;2023-09-08T10:37:36;26.00;38.50
3067;DHT22;1544;48.834;9.194;2023-09-08T10:40:25;26.20;38.40
3067;DHT22;1544;48.834;9.194;2023-09-08T10:43:07;26.30;38.50
3067;DHT22;1544;48.834;9.194;2023-09-08T10:45:46;26.40;37.90
3067;DHT22;1544;48.834;9.194;2023-09-08T10:48:23;26.40;37.80
3067;DHT22;1544;48.834;9.194;2023-09-08T10:50:59;26.60;37.40
3067;DHT22;1544;48.834;9.194;2023-09-08T10:53:37;26.70;37.40
3067;DHT22;1544;48.834;9.194;2023-09-08T10:56:13;26.90;37.40
3067;DHT22;1544;48.834;9.194;2023-09-08T10:58:54;27.00;37.40
3067;DHT22;1544;48.834;9.194;2023-09-08T11:01:30;27.10;37.40
3067;DHT22;1544;48.834;9.194;2023-09-08T11:04:08;27.20;36.70
3067;DHT22;1544;48.834;9.194;2023-09-08T11:06:46;27.40;36.40
3067;DHT22;1544;48.834;9.194;2023-09-08T11:09:21;27.50;36.50
3067;DHT22;1544;48.834;9.194;2023-09-08T11:12:01;27.60;36.60
3067;DHT22;1544;48.834;9.194;2023-09-08T11:14:38;27.80;36.60
3067;DHT22;1544;48.834;9.194;2023-09-08T11:17:14;27.90;36.20
3067;DHT22;1544;48.834;9.194;2023-09-08T11:19:50;28.00;36.20
3067;DHT22;1544;48.834;9.194;2023-09-08T11:22:27;28.10;35.20
3067;DHT22;1544;48.834;9.194;2023-09-08T11:25:03;28.20;35.30
3067;DHT22;1544;48.834;9.194;2023-09-08T11:27:42;28.30;35.70
3067;DHT22;1544;48.834;9.194;2023-09-08T11:30:20;28.50;35.80
3067;DHT22;1544;48.834;9.194;2023-09-08T11:32:56;28.60;35.70
3067;DHT22;1544;48.834;9.194;2023-09-08T11:35:35;28.70;35.70
3067;DHT22;1544;48.834;9.194;2023-09-08T11:38:11;28.90;35.40
3067;DHT22;1544;48.834;9.194;2023-09-08T11:40:47;29.00;34.40
3067;DHT22;1544;48.834;9.194;2023-09-08T11:43:26;29.10;34.60
3067;DHT22;1544;48.834;9.194;2023-09-08T11:46:03;29.30;34.60
3067;DHT22;1544;48.834;9.194;2023-09-08T11:48:39;29.40;34.70
3067;DHT22;1544;48.834;9.194;2023-09-08T11:51:15;29.60;34.30
3067;DHT22;1544;48.834;9.194;2023-09-08T11:53:51;29.80;34.60
3067;DHT22;1544;48.834;9.194;2023-09-08T11:56:27;29.90;34.00
3067;DHT22;1544;48.834;9.194;2023-09-08T11:59:04;30.00;34.20
3067;DHT22;1544;48.834;9.194;2023-09-08T12:01:40;30.30;34.30
3067;DHT22;1544;48.834;9.194;2023-09-08T12:04:17;30.40;33.40
3067;DHT22;1544;48.834;9.194;2023-09-08T12:06:55;30.60;33.00
3067;DHT22;1544;48.834;9.194;2023-09-08T12:09:32;30.70;32.80
3067;DHT22;1544;48.834;9.194;2023-09-08T12:12:12;30.90;33.10
3067;DHT22;1544;48.834;9.194;2023-09-08T12:14:49;31.10;33.70
3067;DHT22;1544;48.834;9.194;2023-09-08T12:17:25;31.40;33.10
3067;DHT22;1544;48.834;9.194;2023-09-08T12:20:13;31.60;33.00
3067;DHT22;1544;48.834;9.194;2023-09-08T12:22:51;31.90;32.20
3067;DHT22;1544;48.834;9.194;2023-09-08T12:25:28;32.00;31.30
3067;DHT22;1544;48.834;9.194;2023-09-08T12:28:04;32.00;30.90
3067;DHT22;1544;48.834;9.194;2023-09-08T12:30:40;32.00;31.60
3067;DHT22;1544;48.834;9.194;2023-09-08T12:33:17;32.20;31.80
3067;DHT22;1544;48.834;9.194;2023-09-08T12:35:56;32.50;31.10
3067;DHT22;1544;48.834;9.194;2023-09-08T12:38:32;32.60;30.70
3067;DHT22;1544;48.834;9.194;2023-09-08T12:41:09;32.70;30.60
3067;DHT22;1544;48.834;9.194;2023-09-08T12:43:45;32.90;30.20
3067;DHT22;1544;48.834;9.194;2023-09-08T12:46:21;33.10;30.40
3067;DHT22;1544;48.834;9.194;2023-09-08T12:48:58;33.40;30.00
3067;DHT22;1544;48.834;9.194;2023-09-08T12:51:34;33.60;30.10
3067;DHT22;1544;48.834;9.194;2023-09-08T12:54:10;34.00;30.00
3067;DHT22;1544;48.834;9.194;2023-09-08T12:56:46;34.10;29.70
3067;DHT22;1544;48.834;9.194;2023-09-08T12:59:22;34.30;30.10
3067;DHT22;1544;48.834;9.194;2023-09-08T13:01:58;34.60;30.20
3067;DHT22;1544;48.834;9.194;2023-09-08T13:04:34;34.90;29.80
3067;DHT22;1544;48.834;9.194;2023-09-08T13:07:09;35.10;29.80
3067;DHT22;1544;48.834;9.194;2023-09-08T13:09:45;35.40;29.60
3067;DHT22;1544;48.834;9.194;2023-09-08T13:12:22;35.60;29.30
3067;DHT22;1544;48.834;9.194;2023-09-08T13:14:58;35.90;29.30
3067;DHT22;1544;48.834;9.194;2023-09-08T13:17:34;36.10;28.80
3067;DHT22;1544;48.834;9.194;2023-09-08T13:20:10;36.30;29.00
3067;DHT22;1544;48.834;9.194;2023-09-08T13:22:47;36.50;28.80
3067;DHT22;1544;48.834;9.194;2023-09-08T13:25:23;36.60;28.50
3067;DHT22;1544;48.834;9.194;2023-09-08T13:27:59;36.80;28.50
3067;DHT22;1544;48.834;9.194;2023-09-08T13:30:35;36.90;28.30
3067;DHT22;1544;48.834;9.194;2023-09-08T13:33:11;36.90;28.20
3067;DHT22;1544;48.834;9.194;2023-09-08T13:35:47;37.00;28.10
3067;DHT22;1544;48.834;9.194;2023-09-08T13:38:23;37.00;27.60
3067;DHT22;1544;48.834;9.194;2023-09-08T13:40:59;37.10;28.10
3067;DHT22;1544;48.834;9.194;2023-09-08T13:43:35;37.30;28.10
3067;DHT22;1544;48.834;9.194;2023-09-08T13:46:11;37.40;27.70
3067;DHT22;1544;48.834;9.194;2023-09-08T13:48:47;37.50;28.10
3067;DHT22;1544;48.834;9.194;2023-09-08T13:51:24;37.80;27.80
3067;DHT22;1544;48.834;9.194;2023-09-08T13:54:03;37.90;27.60
3067;DHT22;1544;48.834;9.194;2023-09-08T13:56:42;37.90;27.20
3067;DHT22;1544;48.834;9.194;2023-09-08T13:59:20;37.90;27.60
3067;DHT22;1544;48.834;9.194;2023-09-08T14:01:59;38.10;27.40
3067;DHT22;1544;48.834;9.194;2023-09-08T14:04:57;38.20;27.60
3067;DHT22;1544;48.834;9.194;2023-09-08T14:07:38;38.20;27.30
3067;DHT22;1544;48.834;9.194;2023-09-08T14:10:21;38.20;27.40
3067;DHT22;1544;48.834;9.194;2023-09-08T14:13:00;38.30;27.60
3067;DHT22;1544;48.834;9.194;2023-09-08T14:15:36;38.50;27.50
3067;DHT22;1544;48.834;9.194;2023-09-08T14:18:12;38.60;27.20
3067;DHT22;1544;48.834;9.194;2023-09-08T14:20:49;38.80;27.10
3067;DHT22;1544;48.834;9.194;2023-09-08T14:23:25;38.90;27.00
3067;DHT22;1544;48.834;9.194;2023-09-08T14:26:01;39.00;26.50
3067;DHT22;1544;48.834;9.194;2023-09-08T14:28:38;38.90;26.80
3067;DHT22;1544;48.834;9.194;2023-09-08T14:31:14;38.90;26.80
3067;DHT22;1544;48.834;9.194;2023-09-08T14:33:50;39.00;26.40
3067;DHT22;1544;48.834;9.194;2023-09-08T14:36:26;39.10;26.50
3067;DHT22;1544;48.834;9.194;2023-09-08T14:39:02;39.10;26.60
3067;DHT22;1544;48.834;9.194;2023-09-08T14:41:39;39.30;26.50
3067;DHT22;1544;48.834;9.194;2023-09-08T14:44:15;39.30;26.30
3067;DHT22;1544;48.834;9.194;2023-09-08T14:46:51;39.10;25.70
3067;DHT22;1544;48.834;9.194;2023-09-08T14:49:27;38.90;26.00
3067;DHT22;1544;48.834;9.194;2023-09-08T14:52:03;38.80;26.60
3067;DHT22;1544;48.834;9.194;2023-09-08T14:54:40;38.90;26.50
3067;DHT22;1544;48.834;9.194;2023-09-08T14:57:16;38.90;26.40
3067;DHT22;1544;48.834;9.194;2023-09-08T14:59:53;38.90;26.40
3067;DHT22;1544;48.834;9.194;2023-09-08T15:02:31;38.80;26.50
3067;DHT22;1544;48.834;9.194;2023-09-08T15:05:07;38.80;26.50
3067;DHT22;1544;48.834;9.194;2023-09-08T15:07:44;38.80;26.50
3067;DHT22;1544;48.834;9.194;2023-09-08T15:10:20;38.80;26.70
3067;DHT22;1544;48.834;9.194;2023-09-08T15:12:56;38.90;26.50
3067;DHT22;1544;48.834;9.194;2023-09-08T15:15:32;39.10;26.50
3067;DHT22;1544;48.834;9.194;2023-09-08T15:18:08;39.10;26.50
3067;DHT22;1544;48.834;9.194;2023-09-08T15:20:54;39.10;26.40
3067;DHT22;1544;48.834;9.194;2023-09-08T15:23:30;39.10;26.20
3067;DHT22;1544;48.834;9.194;2023-09-08T15:26:06;39.00;26.30
3067;DHT22;1544;48.834;9.194;2023-09-08T15:28:43;39.10;26.50
3067;DHT22;1544;48.834;9.194;2023-09-08T15:31:18;39.10;26.50
3067;DHT22;1544;48.834;9.194;2023-09-08T15:33:55;39.10;26.50
3067;DHT22;1544;48.834;9.194;2023-09-08T15:36:31;39.20;26.60
3067;DHT22;1544;48.834;9.194;2023-09-08T15:39:07;39.20;26.50
3067;DHT22;1544;48.834;9.194;2023-09-08T15:41:43;39.30;26.60
3067;DHT22;1544;48.834;9.194;2023-09-08T15:44:19;39.30;26.40
3067;DHT22;1544;48.834;9.194;2023-09-08T15:46:55;39.30;26.50
3067;DHT22;1544;48.834;9.194;2023-09-08T15:49:31;39.30;26.60
3067;DHT22;1544;48.834;9.194;2023-09-08T15:52:07;39.30;26.40
3067;DHT22;1544;48.834;9.194;2023-09-08T15:54:51;39.30;26.40
3067;DHT22;1544;48.834;9.194;2023-09-08T15:57:27;39.20;26.10
3067;DHT22;1544;48.834;9.194;2023-09-08T16:00:04;39.10;26.20
3067;DHT22;1544;48.834;9.194;2023-09-08T16:02:43;39.00;26.40
3067;DHT22;1544;48.834;9.194;2023-09-08T16:05:19;39.00;26.90
3067;DHT22;1544;48.834;9.194;2023-09-08T16:07:55;38.90;26.40
3067;DHT22;1544;48.834;9.194;2023-09-08T16:10:31;38.80;26.70
3067;DHT22;1544;48.834;9.194;2023-09-08T16:13:07;38.80;26.40
3067;DHT22;1544;48.834;9.194;2023-09-08T16:15:43;38.80;26.40
3067;DHT22;1544;48.834;9.194;2023-09-08T16:18:19;38.80;26.30
3067;DHT22;1544;48.834;9.194;2023-09-08T16:20:55;38.80;26.20
3067;DHT22;1544;48.834;9.194;2023-09-08T16:23:31;38.70;26.20
3067;DHT22;1544;48.834;9.194;2023-09-08T16:26:08;38.50;26.20
3067;DHT22;1544;48.834;9.194;2023-09-08T16:28:44;38.40;26.00
3067;DHT22;1544;48.834;9.194;2023-09-08T16:31:20;38.30;26.10
3067;DHT22;1544;48.834;9.194;2023-09-08T16:33:56;38.20;26.20
3067;DHT22;1544;48.834;9.194;2023-09-08T16:36:32;38.10;26.10
3067;DHT22;1544;48.834;9.194;2023-09-08T16:39:08;37.90;26.20
3067;DHT22;1544;48.834;9.194;2023-09-08T16:41:44;37.70;26.40
3067;DHT22;1544;48.834;9.194;2023-09-08T16:44:20;37.50;26.40
3067;DHT22;1544;48.834;9.194;2023-09-08T16:46:55;37.30;26.50
3067;DHT22;1544;48.834;9.194;2023-09-08T16:49:31;37.20;26.60
3067;DHT22;1544;48.834;9.194;2023-09-08T16:52:07;37.00;26.70
3067;DHT22;1544;48.834;9.194;2023-09-08T16:54:43;36.80;26.70
3067;DHT22;1544;48.834;9.194;2023-09-08T16:57:21;36.60;26.80
3067;DHT22;1544;48.834;9.194;2023-09-08T16:59:57;36.40;26.90
3067;DHT22;1544;48.834;9.194;2023-09-08T17:02:35;36.30;27.00
3067;DHT22;1544;48.834;9.194;2023-09-08T17:05:11;36.10;27.20
3067;DHT22;1544;48.834;9.194;2023-09-08T17:07:51;35.90;27.20